createdAt,value
2023-02-17T00:01:33.123Z,9.40
2023-02-17T00:04:03.595Z,9.40
2023-02-17T00:06:33.123Z,9.40
2023-02-17T00:09:02.051Z,9.40
2023-02-17T00:11:31.150Z,9.50
2023-02-17T00:14:00.467Z,9.50
2023-02-17T00:16:30.288Z,9.40
2023-02-17T00:19:00.848Z,9.50
2023-02-17T00:21:32.667Z,9.50
2023-02-17T00:24:01.880Z,9.50
2023-02-17T00:26:30.975Z,9.50
2023-02-17T00:29:00.335Z,9.50
2023-02-17T00:31:29.480Z,9.50
2023-02-17T00:33:58.217Z,9.50
2023-02-17T00:36:27.774Z,9.50
2023-02-17T00:38:58.855Z,9.40
2023-02-17T00:41:30.472Z,9.50
2023-02-17T00:44:00.161Z,9.50
2023-02-17T00:46:28.921Z,9.40
2023-02-17T00:48:57.638Z,9.40
2023-02-17T00:51:27.047Z,9.50
2023-02-17T00:53:56.944Z,9.50
2023-02-17T00:56:25.457Z,9.50
2023-02-17T00:58:54.442Z,9.50
2023-02-17T01:01:23.396Z,9.50
2023-02-17T01:03:51.945Z,9.50
2023-02-17T01:06:25.430Z,9.50
2023-02-17T01:08:54.656Z,9.50
2023-02-17T01:11:27.045Z,9.50
2023-02-17T01:13:56.329Z,9.50
2023-02-17T01:16:27.495Z,9.50
2023-02-17T01:18:56.686Z,9.50
2023-02-17T01:21:26.829Z,9.50
2023-02-17T01:23:58.373Z,9.50
2023-02-17T01:26:29.929Z,9.50
2023-02-17T01:28:59.367Z,9.50
2023-02-17T01:31:28.709Z,9.50
2023-02-17T01:33:59.650Z,9.60
2023-02-17T01:36:29.043Z,9.60
2023-02-17T01:38:57.851Z,9.60
2023-02-17T01:41:29.481Z,9.60
2023-02-17T01:44:15.578Z,9.60
2023-02-17T01:46:45.786Z,9.60
2023-02-17T01:49:21.282Z,9.60
2023-02-17T01:51:57.200Z,9.60
2023-02-17T01:54:30.438Z,9.60
2023-02-17T01:57:01.903Z,9.60
2023-02-17T01:59:31.498Z,9.60
2023-02-17T02:02:05.461Z,9.60
2023-02-17T02:04:39.500Z,9.60
2023-02-17T02:07:14.722Z,9.60
2023-02-17T02:09:50.139Z,9.60
2023-02-17T02:12:26.408Z,9.60
2023-02-17T02:14:57.241Z,9.60
2023-02-17T02:17:35.008Z,9.60
2023-02-17T02:20:35.070Z,9.60
2023-02-17T02:23:27.932Z,9.60
2023-02-17T02:26:25.288Z,9.60
2023-02-17T02:29:15.922Z,9.60
2023-02-17T02:31:53.404Z,9.70
2023-02-17T02:34:27.129Z,9.70
2023-02-17T02:37:01.196Z,9.70
2023-02-17T02:39:35.742Z,9.60
2023-02-17T02:42:08.081Z,9.60
2023-02-17T02:44:37.045Z,9.60
2023-02-17T02:47:08.608Z,9.60
2023-02-17T02:49:38.674Z,9.60
2023-02-17T02:52:15.834Z,9.60
2023-02-17T02:54:54.786Z,9.60
2023-02-17T02:57:36.213Z,9.60
2023-02-17T03:00:21.890Z,9.60
2023-02-17T03:02:57.332Z,9.60
2023-02-17T03:05:39.671Z,9.60
2023-02-17T03:08:12.596Z,9.60
2023-02-17T03:10:48.784Z,9.60
2023-02-17T03:13:18.182Z,9.60
2023-02-17T03:15:48.974Z,9.70
2023-02-17T03:18:17.997Z,9.70
2023-02-17T03:20:53.294Z,9.70
2023-02-17T03:23:22.378Z,9.70
2023-02-17T03:25:51.192Z,9.70
2023-02-17T03:28:19.937Z,9.70
2023-02-17T03:30:48.484Z,9.70
2023-02-17T03:33:17.102Z,9.70
2023-02-17T03:35:45.680Z,9.70
2023-02-17T03:38:16.604Z,9.80
2023-02-17T03:40:45.432Z,9.80
2023-02-17T03:43:14.307Z,9.80
2023-02-17T03:45:43.159Z,9.80
2023-02-17T03:48:12.022Z,9.80
2023-02-17T03:50:40.783Z,9.80
2023-02-17T03:53:09.425Z,9.80
2023-02-17T03:55:39.597Z,9.80
2023-02-17T03:58:08.094Z,9.80
2023-02-17T04:00:36.931Z,9.80
2023-02-17T04:03:05.603Z,9.80
2023-02-17T04:05:34.191Z,9.80
2023-02-17T04:08:03.107Z,9.80
2023-02-17T04:10:32.768Z,9.80
2023-02-17T04:13:02.655Z,9.80
2023-02-17T04:15:31.252Z,9.80
2023-02-17T04:18:00.157Z,9.90
2023-02-17T04:20:28.794Z,9.90
2023-02-17T04:22:57.270Z,9.80
2023-02-17T04:25:25.821Z,9.90
2023-02-17T04:27:54.297Z,9.80
2023-02-17T04:30:24.335Z,9.80
2023-02-17T04:32:52.994Z,9.80
2023-02-17T04:35:21.708Z,9.80
2023-02-17T04:37:50.571Z,9.80
2023-02-17T04:40:19.466Z,9.90
2023-02-17T04:42:48.030Z,9.80
2023-02-17T04:45:16.868Z,9.90
2023-02-17T04:47:47.399Z,9.90
2023-02-17T04:50:16.037Z,9.90
2023-02-17T04:52:44.546Z,9.90
2023-02-17T04:55:13.437Z,9.90
2023-02-17T04:57:41.953Z,9.90
2023-02-17T05:00:11.698Z,9.90
2023-02-17T05:02:40.595Z,9.90
2023-02-17T05:05:10.900Z,9.90
2023-02-17T05:07:39.518Z,9.90
2023-02-17T05:10:09.574Z,9.90
2023-02-17T05:12:38.123Z,9.90
2023-02-17T05:15:08.024Z,9.90
2023-02-17T05:17:37.010Z,9.90
2023-02-17T05:20:07.214Z,9.90
2023-02-17T05:22:37.230Z,9.90
2023-02-17T05:25:06.371Z,9.90
2023-02-17T05:27:34.963Z,9.90
2023-02-17T05:30:04.812Z,9.90
2023-02-17T05:32:33.436Z,9.90
2023-02-17T05:35:01.994Z,9.90
2023-02-17T05:37:30.522Z,9.90
2023-02-17T05:40:00.680Z,9.90
2023-02-17T05:42:29.292Z,9.90
2023-02-17T05:44:57.930Z,9.90
2023-02-17T05:47:27.679Z,9.90
2023-02-17T05:49:56.894Z,9.90
2023-02-17T05:52:25.526Z,9.90
2023-02-17T05:54:54.391Z,10.00
2023-02-17T05:57:24.283Z,10.00
2023-02-17T05:59:52.834Z,9.90
2023-02-17T06:02:21.881Z,9.90
2023-02-17T06:04:50.928Z,10.00
2023-02-17T06:07:19.625Z,10.00
2023-02-17T06:09:48.206Z,10.00
2023-02-17T06:12:16.737Z,10.00
2023-02-17T06:14:47.051Z,10.00
2023-02-17T06:17:15.571Z,10.00
2023-02-17T06:19:44.107Z,10.00
2023-02-17T06:22:17.774Z,10.00
2023-02-17T06:24:47.464Z,10.00
2023-02-17T06:27:16.077Z,10.00
2023-02-17T06:29:44.723Z,10.00
2023-02-17T06:32:14.687Z,10.00
2023-02-17T06:34:43.743Z,10.00
2023-02-17T06:37:12.346Z,10.00
2023-02-17T06:39:40.898Z,10.00
2023-02-17T06:42:09.508Z,9.90
2023-02-17T06:44:38.020Z,9.90
2023-02-17T06:47:06.654Z,9.90
2023-02-17T06:49:38.244Z,9.90
2023-02-17T06:52:09.042Z,9.90
2023-02-17T06:54:37.614Z,9.90
2023-02-17T06:57:06.188Z,9.90
2023-02-17T06:59:34.760Z,9.90
2023-02-17T07:02:04.919Z,9.90
2023-02-17T07:04:35.860Z,9.90
2023-02-17T07:07:04.549Z,9.90
2023-02-17T07:09:33.760Z,9.90
2023-02-17T07:12:03.156Z,9.90
2023-02-17T07:14:33.683Z,9.90
2023-02-17T07:17:03.283Z,9.90
2023-02-17T07:19:32.456Z,9.90
2023-02-17T07:22:02.848Z,9.90
2023-02-17T07:24:31.543Z,9.90
2023-02-17T07:27:01.093Z,9.90
2023-02-17T07:29:30.165Z,9.90
2023-02-17T07:31:59.033Z,9.90
2023-02-17T07:34:28.509Z,9.90
2023-02-17T07:36:57.126Z,10.00
2023-02-17T07:39:27.393Z,10.00
2023-02-17T07:42:01.212Z,10.00
2023-02-17T07:44:31.820Z,10.10
2023-02-17T07:47:00.349Z,10.10
2023-02-17T07:49:28.968Z,10.10
2023-02-17T07:51:58.481Z,10.10
2023-02-17T07:54:28.583Z,10.20
2023-02-17T07:56:57.083Z,10.20
2023-02-17T07:59:25.620Z,10.20
2023-02-17T08:01:54.584Z,10.30
2023-02-17T08:04:23.130Z,10.30
2023-02-17T08:06:51.794Z,10.30
2023-02-17T08:09:38.220Z,10.30
2023-02-17T08:12:27.999Z,10.30
2023-02-17T08:14:59.650Z,10.30
2023-02-17T08:17:28.572Z,10.30
2023-02-17T08:19:57.317Z,10.40
2023-02-17T08:22:26.146Z,10.40
2023-02-17T08:24:54.762Z,10.50
2023-02-17T08:27:25.014Z,10.50
2023-02-17T08:29:55.601Z,10.50
2023-02-17T08:32:24.411Z,10.50
2023-02-17T08:34:56.347Z,10.50
2023-02-17T08:37:25.190Z,10.50
2023-02-17T08:39:53.884Z,10.60
2023-02-17T08:42:22.500Z,10.60
2023-02-17T08:44:52.506Z,10.70
2023-02-17T08:47:21.380Z,10.60
2023-02-17T08:49:50.157Z,10.70
2023-02-17T08:52:18.815Z,10.70
2023-02-17T08:54:47.571Z,10.70
2023-02-17T08:57:16.534Z,10.80
2023-02-17T08:59:48.132Z,10.80
2023-02-17T09:02:18.569Z,10.80
2023-02-17T09:04:47.212Z,10.80
2023-02-17T09:07:16.710Z,10.90
2023-02-17T09:09:46.413Z,10.90
2023-02-17T09:12:15.355Z,10.90
2023-02-17T09:14:44.116Z,11.00
2023-02-17T09:17:12.969Z,11.00
2023-02-17T09:19:43.021Z,11.10
2023-02-17T09:22:26.305Z,11.10
2023-02-17T09:24:59.665Z,11.20
2023-02-17T09:27:28.944Z,11.20
2023-02-17T09:29:58.383Z,11.30
2023-02-17T09:32:27.250Z,11.40
2023-02-17T09:34:58.999Z,11.40
2023-02-17T09:37:28.467Z,11.40
2023-02-17T09:39:57.092Z,11.40
2023-02-17T09:42:27.443Z,11.50
2023-02-17T09:45:01.439Z,11.50
2023-02-17T09:47:36.409Z,11.50
2023-02-17T09:50:11.323Z,11.50
2023-02-17T09:52:49.232Z,11.60
2023-02-17T09:55:23.851Z,11.60
2023-02-17T09:57:58.473Z,11.60
2023-02-17T10:00:31.505Z,11.60
2023-02-17T10:03:07.006Z,11.70
2023-02-17T10:05:41.351Z,11.70
2023-02-17T10:08:16.516Z,11.70
2023-02-17T10:10:52.568Z,11.70
2023-02-17T10:13:23.815Z,11.80
2023-02-17T10:15:54.957Z,11.80
2023-02-17T10:18:32.522Z,11.80
2023-02-17T10:21:08.553Z,11.80
2023-02-17T10:23:37.352Z,11.80
2023-02-17T10:26:19.729Z,11.80
2023-02-17T10:28:53.741Z,11.80
2023-02-17T10:31:41.032Z,11.80
2023-02-17T10:34:18.619Z,11.90
2023-02-17T10:36:59.041Z,11.90
2023-02-17T10:39:43.825Z,12.00
2023-02-17T10:42:22.180Z,12.10
2023-02-17T10:44:52.574Z,12.00
2023-02-17T10:47:22.699Z,12.10
2023-02-17T10:49:54.664Z,12.10
2023-02-17T10:52:38.910Z,12.10
2023-02-17T10:55:22.696Z,12.10
2023-02-17T10:57:55.869Z,12.10
2023-02-17T11:00:26.956Z,12.10
2023-02-17T11:02:56.056Z,12.20
2023-02-17T11:05:27.535Z,12.20
2023-02-17T11:08:01.108Z,12.30
2023-02-17T11:10:32.828Z,12.30
2023-02-17T11:13:03.762Z,12.40
2023-02-17T11:15:36.614Z,12.40
2023-02-17T11:18:13.063Z,12.50
2023-02-17T11:20:41.945Z,12.60
2023-02-17T11:23:25.920Z,12.70
2023-02-17T11:26:00.922Z,12.80
2023-02-17T11:28:30.476Z,12.80
2023-02-17T11:31:06.028Z,12.80
2023-02-17T11:33:37.329Z,12.80
2023-02-17T11:36:08.223Z,12.90
2023-02-17T11:38:46.742Z,12.90
2023-02-17T11:41:15.740Z,12.90
2023-02-17T11:43:55.056Z,12.90
2023-02-17T11:46:30.210Z,12.90
2023-02-17T11:49:22.156Z,12.90
2023-02-17T11:52:00.636Z,13.00
2023-02-17T11:54:37.811Z,12.90
2023-02-17T11:57:21.519Z,13.00
2023-02-17T12:00:05.745Z,13.00
2023-02-17T12:02:52.995Z,13.00
2023-02-17T12:05:28.246Z,13.10
2023-02-17T12:08:10.041Z,13.20
2023-02-17T12:10:57.029Z,13.20
2023-02-17T12:13:36.740Z,13.30
2023-02-17T12:16:29.285Z,13.30
2023-02-17T12:19:06.315Z,13.30
2023-02-17T12:21:54.534Z,13.30
2023-02-17T12:24:50.895Z,13.20
2023-02-17T12:27:32.891Z,13.20
2023-02-17T12:30:16.316Z,13.10
2023-02-17T12:33:04.012Z,13.10
2023-02-17T12:35:42.272Z,13.10
2023-02-17T12:38:17.205Z,13.00
2023-02-17T12:40:51.947Z,13.00
2023-02-17T12:43:29.808Z,13.00
2023-02-17T12:46:01.862Z,13.00
2023-02-17T12:48:36.709Z,13.00
2023-02-17T12:51:10.754Z,13.00
2023-02-17T12:53:48.881Z,13.00
2023-02-17T12:57:00.800Z,13.00
2023-02-17T12:59:36.113Z,13.00
2023-02-17T13:02:08.409Z,13.00
2023-02-17T13:04:37.837Z,13.00
2023-02-17T13:07:21.273Z,13.00
2023-02-17T13:09:54.009Z,13.00
2023-02-17T13:12:39.357Z,13.10
2023-02-17T13:15:29.415Z,13.10
2023-02-17T13:18:03.694Z,13.10
2023-02-17T13:20:58.308Z,13.10
2023-02-17T13:23:59.726Z,13.10
2023-02-17T13:26:31.227Z,13.10
2023-02-17T13:29:21.374Z,13.10
2023-02-17T13:31:54.763Z,13.10
2023-02-17T13:34:29.708Z,13.10
2023-02-17T13:37:02.956Z,13.10
2023-02-17T13:39:38.145Z,13.00
2023-02-17T13:42:38.523Z,13.00
2023-02-17T13:45:19.160Z,13.00
2023-02-17T13:47:51.290Z,13.00
2023-02-17T13:50:34.264Z,13.00
2023-02-17T13:53:04.483Z,13.00
2023-02-17T13:55:33.582Z,13.00
2023-02-17T13:58:03.053Z,13.00
2023-02-17T14:00:32.537Z,13.00
2023-02-17T14:03:15.833Z,12.90
2023-02-17T14:05:46.840Z,12.80
2023-02-17T14:08:21.475Z,12.70
2023-02-17T14:10:50.582Z,12.60
2023-02-17T14:13:23.821Z,12.50
2023-02-17T14:15:55.429Z,12.50
2023-02-17T14:18:33.319Z,12.40
2023-02-17T14:21:04.313Z,12.40
2023-02-17T14:23:45.192Z,12.40
2023-02-17T14:26:17.596Z,12.30
2023-02-17T14:28:55.491Z,12.30
2023-02-17T14:31:25.276Z,12.20
2023-02-17T14:33:57.866Z,12.20
2023-02-17T14:36:35.269Z,12.20
2023-02-17T14:39:07.989Z,12.10
2023-02-17T14:41:36.823Z,12.10
2023-02-17T14:44:06.205Z,12.10
2023-02-17T14:46:35.189Z,12.00
2023-02-17T14:49:05.652Z,12.00
2023-02-17T14:51:37.471Z,12.00
2023-02-17T14:54:13.304Z,12.00
2023-02-17T14:56:46.635Z,12.00
2023-02-17T14:59:15.929Z,12.00
2023-02-17T15:01:45.732Z,11.90
2023-02-17T15:04:16.778Z,11.90
2023-02-17T15:06:50.964Z,11.90
2023-02-17T15:09:22.501Z,11.90
2023-02-17T15:11:52.012Z,11.90
2023-02-17T15:14:22.331Z,11.90
2023-02-17T15:16:51.600Z,11.80
2023-02-17T15:19:22.384Z,11.80
2023-02-17T15:21:52.704Z,11.80
2023-02-17T15:24:27.261Z,11.80
2023-02-17T15:26:59.424Z,11.80
2023-02-17T15:29:31.288Z,11.80
2023-02-17T15:32:03.702Z,11.80
2023-02-17T15:34:35.383Z,11.80
2023-02-17T15:37:04.771Z,11.80
2023-02-17T15:39:34.062Z,11.80
2023-02-17T15:42:08.384Z,11.80
2023-02-17T15:44:45.066Z,11.80
2023-02-17T15:47:17.671Z,11.80
2023-02-17T15:49:48.378Z,11.80
2023-02-17T15:52:19.133Z,11.80
2023-02-17T15:54:48.507Z,11.80
2023-02-17T15:57:26.490Z,11.80
2023-02-17T15:59:56.430Z,11.80
2023-02-17T16:02:27.176Z,11.80
2023-02-17T16:04:57.580Z,11.80
2023-02-17T16:07:26.678Z,11.80
2023-02-17T16:09:55.821Z,11.80
2023-02-17T16:12:28.017Z,11.90
2023-02-17T16:14:59.921Z,11.90
2023-02-17T16:17:32.579Z,11.90
2023-02-17T16:20:03.309Z,11.90
2023-02-17T16:22:32.197Z,11.90
2023-02-17T16:25:02.282Z,11.90
2023-02-17T16:27:31.292Z,11.90
2023-02-17T16:30:00.398Z,11.90
2023-02-17T16:32:30.213Z,11.90
2023-02-17T16:34:59.484Z,11.90
2023-02-17T16:37:34.362Z,11.90
2023-02-17T16:40:06.723Z,11.90
2023-02-17T16:42:36.205Z,11.90
2023-02-17T16:45:05.968Z,11.90
2023-02-17T16:47:34.885Z,12.00
2023-02-17T16:50:10.470Z,12.00
2023-02-17T16:52:42.958Z,12.00
2023-02-17T16:55:18.302Z,12.00
2023-02-17T16:57:48.490Z,12.00
2023-02-17T17:00:20.732Z,12.00
2023-02-17T17:02:50.986Z,12.00
2023-02-17T17:05:26.377Z,11.90
2023-02-17T17:07:57.794Z,12.00
2023-02-17T17:10:29.506Z,11.90
2023-02-17T17:12:59.400Z,11.90
2023-02-17T17:15:32.175Z,11.90
2023-02-17T17:18:03.903Z,12.00
2023-02-17T17:20:35.865Z,11.90
2023-02-17T17:23:15.367Z,12.00
2023-02-17T17:25:47.757Z,12.00
2023-02-17T17:28:19.174Z,12.00
2023-02-17T17:30:50.411Z,12.00
2023-02-17T17:33:19.399Z,12.00
2023-02-17T17:35:48.657Z,12.00
2023-02-17T17:38:19.817Z,11.90
2023-02-17T17:40:52.101Z,11.90
2023-02-17T17:43:23.714Z,12.00
2023-02-17T17:45:53.838Z,12.00
2023-02-17T17:48:22.964Z,12.00
2023-02-17T17:50:51.802Z,12.00
2023-02-17T17:53:22.538Z,12.00
2023-02-17T17:55:53.220Z,12.00
2023-02-17T17:58:22.476Z,12.00
2023-02-17T18:00:53.383Z,12.00
2023-02-17T18:03:22.606Z,12.00
2023-02-17T18:05:52.098Z,12.00
2023-02-17T18:08:23.263Z,12.00
2023-02-17T18:10:52.752Z,12.00
2023-02-17T18:13:23.796Z,12.00
2023-02-17T18:15:56.045Z,12.00
2023-02-17T18:18:26.149Z,12.00
2023-02-17T18:20:58.187Z,12.00
2023-02-17T18:23:35.468Z,12.00
2023-02-17T18:26:09.977Z,12.00
2023-02-17T18:28:40.908Z,11.90
2023-02-17T18:31:11.632Z,11.90
2023-02-17T18:33:41.221Z,11.90
2023-02-17T18:36:11.494Z,11.90
2023-02-17T18:38:42.453Z,11.90
2023-02-17T18:41:19.474Z,11.90
2023-02-17T18:43:49.280Z,11.90
2023-02-17T18:46:20.048Z,11.90
2023-02-17T18:48:49.391Z,11.90
2023-02-17T18:51:23.336Z,11.90
2023-02-17T18:53:54.020Z,11.90
2023-02-17T18:56:25.167Z,11.90
2023-02-17T18:58:56.032Z,11.90
2023-02-17T19:01:27.404Z,11.90
2023-02-17T19:03:57.349Z,11.90
2023-02-17T19:06:32.352Z,11.90
2023-02-17T19:09:06.516Z,11.90
2023-02-17T19:11:36.272Z,11.90
2023-02-17T19:14:05.889Z,11.80
2023-02-17T19:16:35.172Z,11.80
2023-02-17T19:19:05.023Z,11.80
2023-02-17T19:21:36.305Z,11.80
2023-02-17T19:24:09.760Z,11.80
2023-02-17T19:26:39.278Z,11.80
2023-02-17T19:29:09.194Z,11.80
2023-02-17T19:31:38.218Z,11.80
2023-02-17T19:34:07.183Z,11.70
2023-02-17T19:36:36.338Z,11.70
2023-02-17T19:39:09.565Z,11.70
2023-02-17T19:41:38.752Z,11.60
2023-02-17T19:44:08.404Z,11.50
2023-02-17T19:46:40.850Z,11.50
2023-02-17T19:49:10.143Z,11.40
2023-02-17T19:51:39.283Z,11.40
2023-02-17T19:54:12.555Z,11.30
2023-02-17T19:56:41.715Z,11.30
2023-02-17T19:59:10.893Z,11.20
2023-02-17T20:01:43.151Z,11.10
2023-02-17T20:04:12.740Z,11.00
2023-02-17T20:06:43.524Z,10.90
2023-02-17T20:09:17.682Z,10.90
2023-02-17T20:11:47.587Z,10.90
2023-02-17T20:14:17.696Z,10.80
2023-02-17T20:16:48.666Z,10.80
2023-02-17T20:19:21.367Z,10.70
2023-02-17T20:21:50.511Z,10.70
2023-02-17T20:24:21.709Z,10.60
2023-02-17T20:26:53.788Z,10.60
2023-02-17T20:29:23.241Z,10.60
2023-02-17T20:31:52.260Z,10.60
2023-02-17T20:34:30.590Z,10.50
2023-02-17T20:37:00.244Z,10.50
2023-02-17T20:39:31.112Z,10.50
2023-02-17T20:42:01.927Z,10.40
2023-02-17T20:44:35.740Z,10.40
2023-02-17T20:47:07.820Z,10.30
2023-02-17T20:49:40.511Z,10.30
2023-02-17T20:52:09.449Z,10.30
2023-02-17T20:54:40.814Z,10.20
2023-02-17T20:57:19.718Z,10.20
2023-02-17T20:59:52.003Z,10.20
2023-02-17T21:02:21.792Z,10.20
2023-02-17T21:04:51.293Z,10.20
2023-02-17T21:07:20.571Z,10.10
2023-02-17T21:09:56.206Z,10.10
2023-02-17T21:12:25.963Z,10.10
2023-02-17T21:14:56.874Z,10.10
2023-02-17T21:17:25.700Z,10.20
2023-02-17T21:19:54.608Z,10.20
2023-02-17T21:22:26.276Z,10.20
2023-02-17T21:24:57.418Z,10.10
2023-02-17T21:27:27.238Z,10.20
2023-02-17T21:29:56.154Z,10.20
2023-02-17T21:32:25.175Z,10.30
2023-02-17T21:34:54.083Z,10.30
2023-02-17T21:37:23.240Z,10.30
2023-02-17T21:39:52.471Z,10.30
2023-02-17T21:42:36.445Z,10.40
2023-02-17T21:45:06.063Z,10.40
2023-02-17T21:47:35.228Z,10.40
2023-02-17T21:50:04.411Z,10.40
2023-02-17T21:52:33.227Z,10.40
2023-02-17T21:55:02.003Z,10.40
2023-02-17T21:57:32.748Z,10.40
2023-02-17T22:00:01.411Z,10.40
2023-02-17T22:02:30.769Z,10.40
2023-02-17T22:04:59.842Z,10.40
2023-02-17T22:07:28.834Z,10.40
2023-02-17T22:09:57.584Z,10.40
2023-02-17T22:12:26.746Z,10.40
2023-02-17T22:14:57.010Z,10.40
2023-02-17T22:17:26.126Z,10.40
2023-02-17T22:19:57.029Z,10.40
2023-02-17T22:22:26.760Z,10.40
2023-02-17T22:24:58.498Z,10.40
2023-02-17T22:27:27.753Z,10.40
2023-02-17T22:29:58.733Z,10.40
2023-02-17T22:32:27.781Z,10.40
2023-02-17T22:34:56.642Z,10.30
2023-02-17T22:37:26.452Z,10.30
2023-02-17T22:39:57.106Z,10.30
2023-02-17T22:42:26.064Z,10.30
2023-02-17T22:44:54.802Z,10.30
2023-02-17T22:47:25.632Z,10.30
2023-02-17T22:49:54.526Z,10.30
2023-02-17T22:52:23.139Z,10.30
2023-02-17T22:54:52.581Z,10.30
2023-02-17T22:57:21.349Z,10.30
2023-02-17T22:59:50.014Z,10.40
2023-02-17T23:02:19.051Z,10.40
2023-02-17T23:04:49.291Z,10.30
2023-02-17T23:07:18.101Z,10.40
2023-02-17T23:09:46.821Z,10.40
2023-02-17T23:12:16.326Z,10.40
2023-02-17T23:14:46.452Z,10.40
2023-02-17T23:17:15.644Z,10.40
2023-02-17T23:19:44.416Z,10.40
2023-02-17T23:22:16.953Z,10.40
2023-02-17T23:24:47.212Z,10.40
2023-02-17T23:27:16.627Z,10.40
2023-02-17T23:29:45.638Z,10.40
2023-02-17T23:32:14.352Z,10.40
2023-02-17T23:34:43.868Z,10.40
2023-02-17T23:37:13.859Z,10.40
2023-02-17T23:39:43.470Z,10.50
2023-02-17T23:42:12.046Z,10.50
2023-02-17T23:44:40.620Z,10.50
2023-02-17T23:47:09.262Z,10.50
2023-02-17T23:49:38.214Z,10.50
2023-02-17T23:52:07.041Z,10.50
2023-02-17T23:54:37.180Z,10.50
2023-02-17T23:57:06.830Z,10.50
2023-02-17T23:59:35.949Z,10.50
